This is the latest recevied weather packets stored in our database for station/object KF6FPU-15. If no packets are shown the sender has not sent any weather packets the latest 1 day(s).
| Time | Temp. | Humidity | Pressure | Rain* | Wind** | Luminosity | Snow |
|---|---|---|---|---|---|---|---|
| 1778099506 | 38.89° C | 18% | 1019.1 hPa | - | - | - | - |
| 1778098906 | 38.89° C | 18% | 1019.2 hPa | - | - | - | - |
| 1778098306 | 38.33° C | 18% | 1019.2 hPa | - | - | - | - |
| 1778097706 | 37.78° C | 18% | 1019.3 hPa | - | - | - | - |
| 1778097106 | 37.22° C | 18% | 1019.5 hPa | - | - | - | - |
| 1778095906 | 35.56° C | 18% | 1019.8 hPa | - | - | - | - |
| 1778094706 | 32.22° C | 19% | 1020.1 hPa | - | - | - | - |
| 1778094106 | 30.56° C | 19% | 1020.1 hPa | - | - | - | - |
| 1778093506 | 30.56° C | 20% | 1020.1 hPa | - | - | - | - |
| 1778092906 | 30.56° C | 20% | 1020.1 hPa | - | - | - | - |
| 1778092306 | 30° C | 20% | 1020.1 hPa | - | - | - | - |
| 1778091706 | 30° C | 20% | 1020.3 hPa | - | - | - | - |
| 1778091106 | 30° C | 20% | 1020.3 hPa | - | - | - | - |
| 1778090506 | 29.44° C | 20% | 1020.4 hPa | - | - | - | - |
| 1778089906 | 29.44° C | 20% | 1020.4 hPa | - | - | - | - |
| 1778089306 | 28.89° C | 20% | 1020.5 hPa | - | - | - | - |
| 1778088106 | 28.33° C | 20% | 1020.4 hPa | - | - | - | - |
| 1778087506 | 28.33° C | 20% | 1020.4 hPa | - | - | - | - |
| 1778086906 | 28.33° C | 20% | 1020.5 hPa | - | - | - | - |
| 1778086306 | 27.78° C | 20% | 1020.5 hPa | - | - | - | - |
| 1778085706 | 27.78° C | 20% | 1020.5 hPa | - | - | - | - |
| 1778085106 | 27.78° C | 20% | 1020.4 hPa | - | - | - | - |
| 1778084506 | 27.78° C | 20% | 1020.4 hPa | - | - | - | - |
| 1778083906 | 27.78° C | 20% | 1020.4 hPa | - | - | - | - |
| 1778083306 | 27.22° C | 20% | 1020.4 hPa | - | - | - | - |
* Rain since midnight (hover to see other rain measurements)
** Current wind speed in m/s (hover to see current wind gust speed)